createdAt,value
2019-05-10T00:02:03.483Z,88.00
2019-05-10T00:06:30.347Z,87.70
2019-05-10T00:10:38.293Z,87.50
2019-05-10T00:14:49.918Z,87.50
2019-05-10T00:18:59.086Z,87.40
2019-05-10T00:23:07.855Z,87.20
2019-05-10T00:27:17.043Z,87.20
2019-05-10T00:31:25.899Z,87.00
2019-05-10T00:35:34.752Z,86.80
2019-05-10T00:39:44.120Z,86.40
2019-05-10T00:43:52.983Z,86.30
2019-05-10T00:48:01.755Z,86.20
2019-05-10T00:52:10.519Z,86.20
2019-05-10T00:56:19.389Z,86.20
2019-05-10T01:00:28.307Z,86.20
2019-05-10T01:04:37.090Z,86.10
2019-05-10T01:08:45.861Z,86.10
2019-05-10T01:12:54.720Z,85.90
2019-05-10T01:17:03.591Z,86.10
2019-05-10T01:21:12.367Z,86.00
2019-05-10T01:25:33.949Z,85.80
2019-05-10T01:29:31.762Z,85.60
2019-05-10T01:33:40.538Z,85.60
2019-05-10T01:37:49.295Z,85.50
2019-05-10T01:41:58.378Z,85.20
2019-05-10T01:46:07.170Z,85.30
2019-05-10T01:50:16.263Z,85.00
2019-05-10T01:54:25.029Z,84.90
2019-05-10T01:58:33.798Z,84.90
2019-05-10T02:02:42.589Z,84.80
2019-05-10T02:06:51.414Z,84.50
2019-05-10T02:11:00.201Z,84.40
2019-05-10T02:15:09.642Z,84.30
2019-05-10T02:19:18.410Z,84.60
2019-05-10T02:23:27.502Z,85.00
2019-05-10T02:27:36.364Z,85.10
2019-05-10T02:31:45.214Z,84.90
2019-05-10T02:35:53.994Z,84.80
2019-05-10T02:40:03.376Z,84.50
2019-05-10T02:44:12.139Z,84.50
2019-05-10T02:48:20.932Z,84.40
2019-05-10T02:52:30.334Z,84.20
2019-05-10T02:56:39.646Z,84.40
2019-05-10T03:00:52.146Z,84.10
2019-05-10T03:05:00.955Z,84.10
2019-05-10T03:09:09.884Z,84.30
2019-05-10T03:13:26.619Z,84.40
2019-05-10T03:17:33.002Z,84.40
2019-05-10T03:21:43.407Z,84.00
2019-05-10T03:25:52.180Z,84.40
2019-05-10T03:30:01.105Z,84.40
2019-05-10T03:34:10.496Z,84.20
2019-05-10T03:38:19.619Z,84.10
2019-05-10T03:42:28.527Z,83.70
2019-05-10T03:46:37.387Z,83.50
2019-05-10T03:50:46.248Z,83.50
2019-05-10T03:54:55.015Z,83.90
2019-05-10T03:59:03.849Z,84.10
2019-05-10T04:03:12.706Z,84.20
2019-05-10T04:07:21.536Z,84.10
2019-05-10T04:11:30.706Z,84.20
2019-05-10T04:15:39.832Z,83.80
2019-05-10T04:19:48.618Z,83.70
2019-05-10T04:23:58.028Z,83.80
2019-05-10T04:28:06.778Z,83.60
2019-05-10T04:32:15.869Z,83.80
2019-05-10T04:36:24.646Z,83.90
2019-05-10T04:40:33.853Z,83.60
2019-05-10T04:44:42.613Z,83.80
2019-05-10T04:48:51.376Z,83.50
2019-05-10T04:53:00.611Z,83.80
2019-05-10T04:57:09.446Z,83.50
2019-05-10T05:01:18.216Z,83.80
2019-05-10T05:05:27.427Z,83.70
2019-05-10T05:09:36.291Z,83.70
2019-05-10T05:13:45.073Z,83.20
2019-05-10T05:17:53.836Z,83.30
2019-05-10T05:22:03.211Z,83.20
2019-05-10T05:26:11.966Z,83.00
2019-05-10T05:30:21.478Z,82.70
2019-05-10T05:34:30.517Z,82.60
2019-05-10T05:38:40.649Z,81.60
2019-05-10T05:42:49.899Z,81.40
2019-05-10T06:04:27.929Z,79.20
2019-05-10T06:12:59.268Z,79.10
2019-05-10T06:17:08.152Z,78.90
2019-05-10T06:21:18.073Z,78.40
2019-05-10T06:25:38.795Z,77.60
2019-05-10T06:29:38.090Z,77.00
2019-05-10T06:33:46.994Z,76.20
2019-05-10T06:37:55.755Z,76.10
2019-05-10T06:42:04.690Z,75.50
2019-05-10T06:46:13.515Z,75.30
2019-05-10T06:50:28.898Z,74.50
2019-05-10T06:54:33.021Z,73.90
2019-05-10T06:58:41.823Z,74.20
2019-05-10T07:02:51.077Z,74.00
2019-05-10T07:07:02.988Z,74.40
2019-05-10T07:11:11.754Z,74.70
2019-05-10T07:15:20.675Z,74.60
2019-05-10T07:19:34.865Z,74.60
2019-05-10T07:28:51.945Z,74.00
2019-05-10T07:32:59.667Z,74.10
2019-05-10T07:37:09.518Z,74.30
2019-05-10T07:41:19.630Z,74.50
2019-05-10T07:45:28.935Z,74.40
2019-05-10T07:49:37.804Z,73.10
2019-05-10T07:53:46.654Z,72.10
2019-05-10T07:57:59.000Z,71.50
2019-05-10T08:02:12.856Z,71.20
2019-05-10T08:06:19.258Z,70.20
2019-05-10T08:10:28.949Z,68.00
2019-05-10T08:14:39.409Z,67.20
2019-05-10T08:18:49.790Z,65.40
2019-05-10T08:22:59.043Z,64.40
2019-05-10T08:27:14.009Z,63.50
2019-05-10T08:31:18.498Z,62.60
2019-05-10T08:35:27.479Z,61.80
2019-05-10T08:39:45.553Z,59.90
2019-05-10T08:43:46.978Z,58.20
2019-05-10T08:48:00.727Z,56.90
2019-05-10T08:52:06.391Z,55.70
2019-05-10T08:56:21.001Z,55.50
2019-05-10T09:00:41.721Z,56.00
2019-05-10T09:04:42.825Z,55.70
2019-05-10T09:08:46.904Z,56.50
2019-05-10T09:12:58.107Z,56.40
2019-05-10T09:17:06.794Z,55.50
2019-05-10T09:21:15.695Z,54.50
2019-05-10T09:25:29.272Z,53.80
2019-05-10T09:29:37.265Z,50.50
2019-05-10T09:33:49.833Z,50.50
2019-05-10T09:37:58.499Z,50.20
2019-05-10T09:42:10.134Z,50.10
2019-05-10T09:46:17.606Z,50.30
2019-05-10T09:50:30.318Z,51.10
2019-05-10T09:54:38.071Z,50.20
2019-05-10T09:58:48.246Z,48.90
2019-05-10T10:03:01.552Z,47.70
2019-05-10T10:07:08.234Z,47.70
2019-05-10T10:11:18.699Z,46.70
2019-05-10T10:15:33.183Z,46.80
2019-05-10T10:19:40.706Z,42.60
2019-05-10T10:23:48.945Z,45.00
2019-05-10T10:27:57.750Z,44.60
2019-05-10T10:32:07.960Z,44.20
2019-05-10T10:36:17.149Z,43.80
2019-05-10T10:40:27.923Z,42.90
2019-05-10T10:44:37.122Z,42.10
2019-05-10T10:48:49.274Z,40.20
2019-05-10T10:52:57.584Z,41.30
2019-05-10T10:57:08.036Z,43.30
2019-05-10T11:01:25.030Z,43.50
2019-05-10T11:05:27.574Z,38.30
2019-05-10T11:09:36.436Z,36.70
2019-05-10T11:13:51.216Z,37.70
2019-05-10T11:17:55.937Z,40.70
2019-05-10T11:22:09.575Z,41.30
2019-05-10T11:26:15.630Z,43.60
2019-05-10T11:30:24.599Z,42.90
2019-05-10T11:34:37.456Z,41.50
2019-05-10T11:38:47.096Z,40.90
2019-05-10T11:42:54.479Z,39.10
2019-05-10T11:47:03.338Z,35.60
2019-05-10T11:51:17.216Z,37.00
2019-05-10T11:55:22.695Z,37.00
2019-05-10T11:59:33.709Z,35.00
2019-05-10T12:03:42.553Z,34.20
2019-05-10T12:07:54.538Z,35.60
2019-05-10T12:12:03.286Z,33.50
2019-05-10T12:16:17.015Z,34.90
2019-05-10T12:24:52.545Z,34.90
2019-05-10T12:26:08.471Z,35.30
2019-05-10T12:28:44.259Z,34.90
2019-05-10T12:32:56.128Z,34.80
2019-05-10T12:37:08.096Z,35.00
2019-05-10T12:41:14.062Z,35.80
2019-05-10T12:45:23.494Z,35.30
2019-05-10T12:49:32.410Z,36.30
2019-05-10T12:53:44.616Z,34.80
2019-05-10T12:57:51.692Z,33.40
2019-05-10T13:02:04.419Z,32.30
2019-05-10T13:06:11.050Z,31.50
2019-05-10T13:10:20.014Z,30.10
2019-05-10T13:14:29.348Z,31.00
2019-05-10T13:18:50.838Z,29.70
2019-05-10T13:22:49.079Z,30.00
2019-05-10T13:26:57.863Z,30.00
2019-05-10T13:31:07.240Z,31.20
2019-05-10T13:35:16.216Z,30.90
2019-05-10T13:39:27.415Z,30.60
2019-05-10T13:43:35.740Z,31.30
2019-05-10T13:47:44.590Z,29.70
2019-05-10T13:51:53.362Z,29.80
2019-05-10T13:56:02.146Z,31.70
2019-05-10T14:00:11.238Z,31.60
2019-05-10T14:04:23.043Z,30.20
2019-05-10T14:08:30.750Z,30.20
2019-05-10T14:12:39.600Z,31.30
2019-05-10T14:16:48.387Z,33.10
2019-05-10T14:20:57.150Z,31.70
2019-05-10T14:25:06.351Z,31.50
2019-05-10T14:29:15.207Z,30.90
2019-05-10T14:33:23.992Z,31.40
2019-05-10T14:37:32.754Z,32.30
2019-05-10T14:41:45.343Z,33.00
2019-05-10T14:45:52.122Z,32.50
2019-05-10T14:50:00.967Z,30.50
2019-05-10T14:54:09.814Z,30.10
2019-05-10T14:58:18.596Z,31.30
2019-05-10T15:02:27.360Z,32.00
2019-05-10T15:06:36.854Z,30.30
2019-05-10T15:10:46.743Z,29.10
2019-05-10T15:14:55.622Z,30.00
2019-05-10T15:19:04.542Z,31.50
2019-05-10T15:23:13.339Z,31.70
2019-05-10T15:27:24.011Z,31.50
2019-05-10T15:31:32.834Z,30.20
2019-05-10T15:35:45.591Z,31.20
2019-05-10T15:39:52.502Z,32.10
2019-05-10T15:44:01.282Z,31.30
2019-05-10T15:48:10.051Z,31.30
2019-05-10T15:52:18.836Z,31.20
2019-05-10T15:56:27.733Z,32.30
2019-05-10T16:00:39.459Z,31.70
2019-05-10T16:04:47.215Z,31.40
2019-05-10T16:08:55.991Z,31.30
2019-05-10T16:13:04.918Z,32.00
2019-05-10T16:17:17.013Z,32.40
2019-05-10T16:21:24.214Z,31.80
2019-05-10T16:25:41.067Z,32.40
2019-05-10T16:29:43.602Z,33.00
2019-05-10T16:33:53.403Z,32.60
2019-05-10T16:38:02.887Z,32.70
2019-05-10T16:42:11.670Z,32.40
2019-05-10T16:46:20.442Z,33.60
2019-05-10T16:50:31.626Z,34.20
2019-05-10T16:54:39.806Z,33.90
2019-05-10T16:58:53.149Z,34.20
2019-05-10T17:02:59.061Z,34.50
2019-05-10T17:07:13.105Z,33.30
2019-05-10T17:11:18.554Z,33.40
2019-05-10T17:15:27.764Z,33.90
2019-05-10T17:19:36.560Z,35.40
2019-05-10T17:23:46.725Z,36.10
2019-05-10T17:27:58.249Z,36.60
2019-05-10T17:32:06.973Z,37.00
2019-05-10T17:36:19.863Z,36.00
2019-05-10T17:40:26.327Z,35.60
2019-05-10T17:44:35.216Z,35.20
2019-05-10T17:48:47.553Z,35.80
2019-05-10T17:52:54.529Z,36.60
2019-05-10T17:57:03.379Z,37.30
2019-05-10T18:01:12.158Z,37.70
2019-05-10T18:05:21.019Z,38.80
2019-05-10T18:09:29.773Z,39.60
2019-05-10T18:13:40.909Z,40.00
2019-05-10T18:17:49.074Z,40.90
2019-05-10T18:22:00.758Z,42.80
2019-05-10T18:26:08.580Z,42.10
2019-05-10T18:30:18.043Z,42.80
2019-05-10T18:34:33.273Z,43.80
2019-05-10T18:38:38.996Z,45.80
2019-05-10T18:42:47.899Z,46.30
2019-05-10T18:46:56.691Z,47.70
2019-05-10T18:51:05.662Z,48.60
2019-05-10T19:00:25.257Z,48.80
2019-05-10T19:04:33.867Z,49.20
2019-05-10T19:08:44.081Z,51.00
2019-05-10T19:13:01.066Z,51.20
2019-05-10T19:17:08.817Z,51.60
2019-05-10T19:21:14.254Z,52.40
2019-05-10T19:25:23.337Z,54.30
2019-05-10T19:29:32.343Z,57.00
2019-05-10T19:33:41.113Z,58.90
2019-05-10T19:37:49.894Z,59.70
2019-05-10T19:42:03.858Z,60.90
2019-05-10T19:46:09.469Z,62.00
2019-05-10T19:50:18.733Z,63.10
2019-05-10T19:54:29.218Z,64.30
2019-05-10T19:58:38.065Z,64.90
2019-05-10T20:02:46.930Z,65.30
2019-05-10T20:06:55.697Z,65.80
2019-05-10T20:11:04.642Z,65.90
2019-05-10T20:15:13.901Z,65.70
2019-05-10T20:19:22.673Z,66.30
2019-05-10T20:23:31.484Z,67.10
2019-05-10T20:27:40.612Z,66.90
2019-05-10T20:31:49.478Z,68.40
2019-05-10T20:35:58.266Z,69.40
2019-05-10T20:40:08.339Z,70.90
2019-05-10T20:44:18.321Z,71.80
2019-05-10T20:48:27.377Z,72.20
2019-05-10T20:52:36.240Z,73.40
2019-05-10T20:56:45.080Z,74.50
2019-05-10T21:00:54.122Z,74.80
2019-05-10T21:05:02.978Z,76.00
2019-05-10T21:09:12.284Z,77.40
2019-05-10T21:13:21.037Z,77.80
2019-05-10T21:17:29.821Z,78.90
2019-05-10T21:21:38.873Z,79.90
2019-05-10T21:25:47.729Z,81.10
2019-05-10T21:29:56.618Z,81.90
2019-05-10T21:34:09.861Z,82.30
2019-05-10T21:38:30.733Z,82.40
2019-05-10T21:42:26.710Z,83.10
2019-05-10T21:46:35.597Z,84.40
2019-05-10T21:50:44.420Z,84.90
2019-05-10T21:54:53.253Z,84.70
2019-05-10T21:59:02.014Z,85.20
2019-05-10T22:03:10.861Z,85.60
2019-05-10T22:07:19.669Z,85.80
2019-05-10T22:11:28.554Z,85.90
2019-05-10T22:15:37.385Z,86.00
2019-05-10T22:19:46.157Z,86.60
2019-05-10T22:23:55.022Z,86.60
2019-05-10T22:28:03.862Z,86.80
2019-05-10T22:32:12.994Z,86.80
2019-05-10T22:36:21.758Z,87.30
2019-05-10T22:40:30.549Z,88.50
2019-05-10T22:44:39.310Z,88.30
2019-05-10T22:48:48.090Z,88.90
2019-05-10T22:52:56.869Z,89.30
2019-05-10T22:57:05.657Z,89.70
2019-05-10T23:01:14.526Z,90.20
2019-05-10T23:05:23.313Z,90.20
2019-05-10T23:09:32.096Z,90.00
2019-05-10T23:13:40.868Z,89.40
2019-05-10T23:17:49.719Z,89.50
2019-05-10T23:21:58.482Z,89.50
2019-05-10T23:26:07.284Z,89.60
2019-05-10T23:30:16.201Z,89.40
2019-05-10T23:34:25.006Z,89.80
2019-05-10T23:38:33.778Z,90.00
2019-05-10T23:42:42.813Z,89.80
2019-05-10T23:46:51.659Z,89.80
2019-05-10T23:51:00.433Z,90.00
2019-05-10T23:55:09.548Z,90.30
2019-05-10T23:59:18.343Z,90.30
